Current Weather

Wadi Al Dawasir

Wadi Al Dawasir, Saudi Arabia (OEWD)

Report from: Sunday, June 26, 2022 7:00 PM +03
Current time: Sunday, June 26, 2022 8:17 PM +03

Nearby weather
Weather history
Weather forecast

Temperature42.0°C (107.6°F)
Heat index40.5°C (104.9°F)
Dew point10.0°C (50.0°F)
Winds 6 kts (3.1 m/s, 6.9 mph) South-Southwest (210°)
Visibility6.2 mi. (10 km)
Clouds Few clouds 4,000 ft. (1,219 m)
Altimeter29.62 in.Hg (1003 mB)
Relative humidity15 %
Density altitude3,539 ft. (1,079 m)
Remarks No significant changes expected in the next two hours
Flight conditions Visual Meteorological Conditions
Raw dataOEWD 261600Z 21006KT 9999 FEW040 42/10 Q1003 NOSIG
An error has occurred. This application may no longer respond until reloaded. Reload 🗙